<?xml version="1.0" encoding="UTF-8"?>
<gpx version="1.1" creator="https://www.youtrack.es" xsi:schemaLocation="http://www.topografix.com/GPX/1/1 http://www.topografix.com/GPX/1/1/gpx.xsd http://www.garmin.com/xmlschemas/GpxExtensions/v3 http://www.garmin.com/xmlschemas/GpxExtensionsv3.xsd http://www.garmin.com/xmlschemas/TrackPointExtension/v1 http://www.garmin.com/xmlschemas/TrackPointExtensionv1.xsd" xmlns:gpxtpx="http://www.garmin.com/xmlschemas/TrackPointExtension/v1" xmlns:gpxx="http://www.garmin.com/xmlschemas/GpxExtensions/v3" xmlns:xsi="http://www.w3.org/2001/XMLSchema-instance">
  <metadata>
    <link href="https://www.youtrack.es">
      <text>YouTrack.es</text>
    </link>
    <time>2026-05-08T20:02:28Z</time>
  </metadata>
  <trk>
    <src>https://www.youtrack.es</src>
    <link href="https://www.youtrack.es/ruta/20205-becerril-palencia-canal-de-castilla--1-">
      <text>YouTrack.es</text>
    </link>
    <trkseg>
      <trkpt lat="42.107748" lon="-4.645019">
        <ele>771.7</ele>
        <time>2016-07-21T06:59:48.000Z</time>
      </trkpt>
      <trkpt lat="42.106960" lon="-4.644947">
        <ele>770.3</ele>
        <time>2016-07-21T07:03:22.000Z</time>
      </trkpt>
      <trkpt lat="42.106214" lon="-4.644316">
        <ele>771.1</ele>
        <time>2016-07-21T07:03:57.000Z</time>
      </trkpt>
      <trkpt lat="42.101134" lon="-4.642476">
        <ele>771.6</ele>
        <time>2016-07-21T07:06:03.000Z</time>
      </trkpt>
      <trkpt lat="42.100491" lon="-4.641781">
        <ele>771.6</ele>
        <time>2016-07-21T07:06:26.000Z</time>
      </trkpt>
      <trkpt lat="42.100250" lon="-4.640997">
        <ele>771.1</ele>
        <time>2016-07-21T07:06:43.000Z</time>
      </trkpt>
      <trkpt lat="42.100246" lon="-4.640494">
        <ele>771.2</ele>
        <time>2016-07-21T07:06:53.000Z</time>
      </trkpt>
      <trkpt lat="42.101319" lon="-4.633919">
        <ele>771.7</ele>
        <time>2016-07-21T07:09:12.000Z</time>
      </trkpt>
      <trkpt lat="42.101035" lon="-4.632920">
        <ele>772.7</ele>
        <time>2016-07-21T07:09:32.000Z</time>
      </trkpt>
      <trkpt lat="42.098977" lon="-4.630876">
        <ele>773.0</ele>
        <time>2016-07-21T07:10:30.000Z</time>
      </trkpt>
      <trkpt lat="42.095942" lon="-4.627065">
        <ele>773.1</ele>
        <time>2016-07-21T07:12:07.000Z</time>
      </trkpt>
      <trkpt lat="42.095174" lon="-4.625053">
        <ele>771.6</ele>
        <time>2016-07-21T07:12:47.000Z</time>
      </trkpt>
      <trkpt lat="42.094764" lon="-4.622332">
        <ele>771.6</ele>
        <time>2016-07-21T07:13:36.000Z</time>
      </trkpt>
      <trkpt lat="42.094199" lon="-4.621888">
        <ele>771.7</ele>
        <time>2016-07-21T07:13:51.000Z</time>
      </trkpt>
      <trkpt lat="42.093498" lon="-4.621626">
        <ele>772.1</ele>
        <time>2016-07-21T07:14:07.000Z</time>
      </trkpt>
      <trkpt lat="42.093203" lon="-4.621078">
        <ele>772.6</ele>
        <time>2016-07-21T07:14:19.000Z</time>
      </trkpt>
      <trkpt lat="42.093237" lon="-4.620309">
        <ele>771.7</ele>
        <time>2016-07-21T07:14:33.000Z</time>
      </trkpt>
      <trkpt lat="42.093899" lon="-4.617701">
        <ele>772.1</ele>
        <time>2016-07-21T07:15:22.000Z</time>
      </trkpt>
      <trkpt lat="42.093748" lon="-4.616373">
        <ele>772.1</ele>
        <time>2016-07-21T07:15:46.000Z</time>
      </trkpt>
      <trkpt lat="42.091179" lon="-4.611651">
        <ele>771.1</ele>
        <time>2016-07-21T07:17:25.000Z</time>
      </trkpt>
      <trkpt lat="42.090641" lon="-4.611466">
        <ele>768.8</ele>
        <time>2016-07-21T07:17:39.000Z</time>
      </trkpt>
      <trkpt lat="42.090055" lon="-4.609958">
        <ele>774.0</ele>
        <time>2016-07-21T07:18:10.000Z</time>
      </trkpt>
      <trkpt lat="42.089740" lon="-4.609893">
        <ele>773.0</ele>
        <time>2016-07-21T07:18:23.000Z</time>
      </trkpt>
      <trkpt lat="42.089818" lon="-4.609609">
        <ele>773.1</ele>
        <time>2016-07-21T07:18:40.000Z</time>
      </trkpt>
      <trkpt lat="42.089652" lon="-4.608951">
        <ele>772.2</ele>
        <time>2016-07-21T07:19:21.000Z</time>
      </trkpt>
      <trkpt lat="42.088378" lon="-4.606637">
        <ele>771.6</ele>
        <time>2016-07-21T07:20:08.000Z</time>
      </trkpt>
      <trkpt lat="42.085304" lon="-4.602867">
        <ele>771.1</ele>
        <time>2016-07-21T07:21:36.000Z</time>
      </trkpt>
      <trkpt lat="42.083813" lon="-4.601778">
        <ele>771.6</ele>
        <time>2016-07-21T07:22:12.000Z</time>
      </trkpt>
      <trkpt lat="42.083337" lon="-4.601149">
        <ele>771.1</ele>
        <time>2016-07-21T07:22:27.000Z</time>
      </trkpt>
      <trkpt lat="42.081590" lon="-4.594931">
        <ele>771.2</ele>
        <time>2016-07-21T07:24:19.000Z</time>
      </trkpt>
      <trkpt lat="42.081621" lon="-4.593236">
        <ele>771.2</ele>
        <time>2016-07-21T07:24:48.000Z</time>
      </trkpt>
      <trkpt lat="42.081491" lon="-4.592751">
        <ele>771.2</ele>
        <time>2016-07-21T07:24:57.000Z</time>
      </trkpt>
      <trkpt lat="42.080895" lon="-4.591962">
        <ele>771.2</ele>
        <time>2016-07-21T07:25:16.000Z</time>
      </trkpt>
      <trkpt lat="42.080629" lon="-4.591839">
        <ele>771.2</ele>
        <time>2016-07-21T07:25:22.000Z</time>
      </trkpt>
      <trkpt lat="42.080215" lon="-4.591901">
        <ele>771.1</ele>
        <time>2016-07-21T07:25:31.000Z</time>
      </trkpt>
      <trkpt lat="42.078608" lon="-4.592580">
        <ele>770.6</ele>
        <time>2016-07-21T07:26:06.000Z</time>
      </trkpt>
      <trkpt lat="42.075846" lon="-4.591406">
        <ele>770.7</ele>
        <time>2016-07-21T07:27:04.000Z</time>
      </trkpt>
      <trkpt lat="42.075379" lon="-4.591451">
        <ele>770.7</ele>
        <time>2016-07-21T07:27:13.000Z</time>
      </trkpt>
      <trkpt lat="42.072897" lon="-4.592657">
        <ele>770.6</ele>
        <time>2016-07-21T07:28:06.000Z</time>
      </trkpt>
      <trkpt lat="42.071954" lon="-4.592488">
        <ele>770.6</ele>
        <time>2016-07-21T07:28:26.000Z</time>
      </trkpt>
      <trkpt lat="42.071674" lon="-4.592181">
        <ele>771.2</ele>
        <time>2016-07-21T07:28:34.000Z</time>
      </trkpt>
      <trkpt lat="42.071574" lon="-4.591561">
        <ele>771.6</ele>
        <time>2016-07-21T07:28:45.000Z</time>
      </trkpt>
      <trkpt lat="42.071664" lon="-4.589454">
        <ele>772.2</ele>
        <time>2016-07-21T07:29:21.000Z</time>
      </trkpt>
      <trkpt lat="42.071436" lon="-4.589120">
        <ele>773.0</ele>
        <time>2016-07-21T07:29:29.000Z</time>
      </trkpt>
      <trkpt lat="42.070910" lon="-4.588905">
        <ele>770.6</ele>
        <time>2016-07-21T07:30:02.000Z</time>
      </trkpt>
      <trkpt lat="42.071164" lon="-4.588378">
        <ele>771.2</ele>
        <time>2016-07-21T07:30:34.000Z</time>
      </trkpt>
      <trkpt lat="42.070426" lon="-4.587985">
        <ele>765.0</ele>
        <time>2016-07-21T07:31:08.000Z</time>
      </trkpt>
      <trkpt lat="42.070531" lon="-4.587666">
        <ele>764.0</ele>
        <time>2016-07-21T07:31:19.000Z</time>
      </trkpt>
      <trkpt lat="42.070424" lon="-4.587558">
        <ele>764.0</ele>
        <time>2016-07-21T07:31:24.000Z</time>
      </trkpt>
      <trkpt lat="42.069387" lon="-4.587117">
        <ele>760.6</ele>
        <time>2016-07-21T07:31:52.000Z</time>
      </trkpt>
      <trkpt lat="42.052757" lon="-4.577952">
        <ele>758.6</ele>
        <time>2016-07-21T07:37:44.000Z</time>
      </trkpt>
      <trkpt lat="42.052132" lon="-4.577769">
        <ele>760.5</ele>
        <time>2016-07-21T07:38:00.000Z</time>
      </trkpt>
      <trkpt lat="42.051328" lon="-4.578193">
        <ele>756.8</ele>
        <time>2016-07-21T07:38:22.000Z</time>
      </trkpt>
      <trkpt lat="42.047652" lon="-4.581067">
        <ele>752.5</ele>
        <time>2016-07-21T07:39:47.000Z</time>
      </trkpt>
      <trkpt lat="42.049991" lon="-4.578014">
        <ele>741.1</ele>
        <time>2018-09-14T13:55:03.000Z</time>
      </trkpt>
      <trkpt lat="42.051497" lon="-4.578388">
        <ele>750.2</ele>
        <time>2018-09-14T13:56:15.000Z</time>
      </trkpt>
      <trkpt lat="42.040611" lon="-4.586331">
        <ele>743.8</ele>
        <time>2018-09-14T14:04:40.000Z</time>
      </trkpt>
      <trkpt lat="42.030903" lon="-4.583213">
        <ele>742.8</ele>
        <time>2018-09-14T14:08:33.000Z</time>
      </trkpt>
      <trkpt lat="42.029898" lon="-4.581565">
        <ele>742.5</ele>
        <time>2018-09-14T14:09:17.000Z</time>
      </trkpt>
      <trkpt lat="42.029381" lon="-4.581892">
        <ele>744.2</ele>
        <time>2018-09-14T14:09:34.000Z</time>
      </trkpt>
      <trkpt lat="42.028866" lon="-4.580649">
        <ele>740.8</ele>
        <time>2018-09-14T14:10:06.000Z</time>
      </trkpt>
      <trkpt lat="42.022650" lon="-4.575743">
        <ele>741.4</ele>
        <time>2018-09-14T14:13:01.000Z</time>
      </trkpt>
      <trkpt lat="42.008720" lon="-4.560936">
        <ele>740.7</ele>
        <time>2018-09-14T14:19:40.000Z</time>
      </trkpt>
      <trkpt lat="42.003567" lon="-4.557102">
        <ele>740.1</ele>
        <time>2018-09-14T14:22:06.000Z</time>
      </trkpt>
      <trkpt lat="42.001617" lon="-4.551519">
        <ele>733.0</ele>
        <time>2018-09-14T14:30:15.000Z</time>
      </trkpt>
      <trkpt lat="41.988291" lon="-4.537298">
        <ele>730.8</ele>
        <time>2018-09-14T14:37:14.000Z</time>
      </trkpt>
      <trkpt lat="41.985862" lon="-4.536825">
        <ele>734.9</ele>
        <time>2018-09-14T14:38:02.000Z</time>
      </trkpt>
      <trkpt lat="41.982149" lon="-4.537643">
        <ele>735.5</ele>
        <time>2018-09-14T14:39:15.000Z</time>
      </trkpt>
      <trkpt lat="41.977563" lon="-4.535003">
        <ele>735.9</ele>
        <time>2018-09-14T14:40:53.000Z</time>
      </trkpt>
      <trkpt lat="41.976226" lon="-4.533569">
        <ele>731.9</ele>
        <time>2018-09-14T14:41:27.000Z</time>
      </trkpt>
      <trkpt lat="41.973357" lon="-4.532526">
        <ele>732.5</ele>
        <time>2018-09-14T14:42:27.000Z</time>
      </trkpt>
      <trkpt lat="41.971722" lon="-4.529551">
        <ele>732.7</ele>
        <time>2018-09-14T14:43:26.000Z</time>
      </trkpt>
      <trkpt lat="41.964547" lon="-4.526172">
        <ele>733.9</ele>
        <time>2018-09-14T14:46:02.000Z</time>
      </trkpt>
      <trkpt lat="41.962963" lon="-4.524117">
        <ele>731.5</ele>
        <time>2018-09-14T14:46:48.000Z</time>
      </trkpt>
      <trkpt lat="41.958838" lon="-4.523519">
        <ele>730.2</ele>
        <time>2018-09-14T14:48:08.000Z</time>
      </trkpt>
      <trkpt lat="41.954833" lon="-4.519480">
        <ele>731.9</ele>
        <time>2018-09-14T14:49:50.000Z</time>
      </trkpt>
      <trkpt lat="41.945995" lon="-4.516268">
        <ele>727.7</ele>
        <time>2018-09-14T14:53:24.000Z</time>
      </trkpt>
      <trkpt lat="41.939347" lon="-4.516225">
        <ele>728.5</ele>
        <time>2018-09-14T14:55:41.000Z</time>
      </trkpt>
      <trkpt lat="41.926108" lon="-4.523195">
        <ele>729.0</ele>
        <time>2018-09-14T15:00:31.000Z</time>
      </trkpt>
      <trkpt lat="41.920895" lon="-4.524625">
        <ele>718.0</ele>
        <time>2018-09-14T15:05:34.000Z</time>
      </trkpt>
      <trkpt lat="41.917924" lon="-4.527432">
        <ele>717.8</ele>
        <time>2018-09-14T15:07:38.000Z</time>
      </trkpt>
      <trkpt lat="41.912915" lon="-4.528630">
        <ele>716.6</ele>
        <time>2018-09-14T15:09:23.000Z</time>
      </trkpt>
      <trkpt lat="41.910307" lon="-4.528532">
        <ele>713.7</ele>
        <time>2018-09-14T15:10:16.000Z</time>
      </trkpt>
      <trkpt lat="41.901103" lon="-4.532431">
        <ele>715.5</ele>
        <time>2018-09-14T15:13:52.000Z</time>
      </trkpt>
      <trkpt lat="41.899423" lon="-4.531533">
        <ele>717.0</ele>
        <time>2018-09-14T15:14:33.000Z</time>
      </trkpt>
      <trkpt lat="41.894699" lon="-4.531315">
        <ele>717.7</ele>
        <time>2018-09-14T15:16:21.000Z</time>
      </trkpt>
      <trkpt lat="41.890794" lon="-4.532463">
        <ele>718.8</ele>
        <time>2018-09-14T15:17:49.000Z</time>
      </trkpt>
      <trkpt lat="41.878742" lon="-4.541179">
        <ele>709.1</ele>
        <time>2018-09-14T15:24:17.000Z</time>
      </trkpt>
      <trkpt lat="41.872348" lon="-4.541085">
        <ele>714.2</ele>
        <time>2018-09-14T15:26:32.000Z</time>
      </trkpt>
      <trkpt lat="41.872517" lon="-4.541601">
        <ele>714.8</ele>
        <time>2018-09-14T15:26:51.000Z</time>
      </trkpt>
      <trkpt lat="41.872275" lon="-4.539933">
        <ele>717.7</ele>
        <time>2018-09-14T15:27:35.000Z</time>
      </trkpt>
      <trkpt lat="41.871409" lon="-4.539573">
        <ele>713.6</ele>
        <time>2018-09-14T16:39:10.000Z</time>
      </trkpt>
      <trkpt lat="41.872350" lon="-4.540159">
        <ele>717.5</ele>
        <time>2018-09-14T16:39:31.000Z</time>
      </trkpt>
      <trkpt lat="41.872387" lon="-4.542406">
        <ele>717.2</ele>
        <time>2018-09-14T16:41:46.000Z</time>
      </trkpt>
      <trkpt lat="41.872272" lon="-4.541190">
        <ele>714.0</ele>
        <time>2018-09-14T16:42:34.000Z</time>
      </trkpt>
      <trkpt lat="41.870535" lon="-4.542193">
        <ele>714.0</ele>
        <time>2018-09-14T16:43:16.000Z</time>
      </trkpt>
      <trkpt lat="41.870074" lon="-4.541441">
        <ele>713.5</ele>
        <time>2018-09-14T16:43:28.000Z</time>
      </trkpt>
      <trkpt lat="41.858140" lon="-4.549499">
        <ele>713.5</ele>
        <time>2018-09-14T16:47:56.000Z</time>
      </trkpt>
      <trkpt lat="41.856668" lon="-4.551529">
        <ele>712.6</ele>
        <time>2018-09-14T16:48:48.000Z</time>
      </trkpt>
      <trkpt lat="41.818816" lon="-4.577278">
        <ele>709.9</ele>
        <time>2018-09-14T17:03:14.000Z</time>
      </trkpt>
      <trkpt lat="41.806707" lon="-4.582152">
        <ele>712.5</ele>
        <time>2018-09-14T17:07:48.000Z</time>
      </trkpt>
      <trkpt lat="41.806479" lon="-4.581635">
        <ele>708.1</ele>
        <time>2018-09-14T17:08:11.000Z</time>
      </trkpt>
      <trkpt lat="41.803713" lon="-4.582846">
        <ele>708.4</ele>
        <time>2018-09-14T17:14:51.000Z</time>
      </trkpt>
      <trkpt lat="41.795761" lon="-4.597127">
        <ele>709.0</ele>
        <time>2018-09-14T17:19:09.000Z</time>
      </trkpt>
      <trkpt lat="41.792770" lon="-4.601019">
        <ele>708.1</ele>
        <time>2018-09-14T17:20:33.000Z</time>
      </trkpt>
      <trkpt lat="41.789024" lon="-4.602908">
        <ele>708.4</ele>
        <time>2018-09-14T17:21:55.000Z</time>
      </trkpt>
      <trkpt lat="41.753966" lon="-4.635170">
        <ele>700.3</ele>
        <time>2018-09-14T17:38:45.000Z</time>
      </trkpt>
      <trkpt lat="41.754213" lon="-4.637982">
        <ele>702.4</ele>
        <time>2018-09-14T17:39:38.000Z</time>
      </trkpt>
      <trkpt lat="41.745050" lon="-4.655962">
        <ele>704.0</ele>
        <time>2018-09-14T17:45:14.000Z</time>
      </trkpt>
      <trkpt lat="41.734748" lon="-4.672465">
        <ele>705.0</ele>
        <time>2018-09-14T17:51:11.000Z</time>
      </trkpt>
      <trkpt lat="41.727861" lon="-4.679127">
        <ele>706.1</ele>
        <time>2018-09-14T17:57:29.000Z</time>
      </trkpt>
      <trkpt lat="41.727199" lon="-4.682254">
        <ele>704.7</ele>
        <time>2018-09-14T17:58:37.000Z</time>
      </trkpt>
      <trkpt lat="41.723637" lon="-4.688845">
        <ele>704.1</ele>
        <time>2018-09-14T18:00:51.000Z</time>
      </trkpt>
      <trkpt lat="41.721213" lon="-4.690629">
        <ele>699.0</ele>
        <time>2018-09-14T18:01:55.000Z</time>
      </trkpt>
      <trkpt lat="41.702713" lon="-4.709769">
        <ele>702.5</ele>
        <time>2018-09-14T18:11:00.000Z</time>
      </trkpt>
      <trkpt lat="41.695988" lon="-4.713491">
        <ele>700.3</ele>
        <time>2018-09-14T18:16:08.000Z</time>
      </trkpt>
      <trkpt lat="41.696278" lon="-4.714256">
        <ele>701.6</ele>
        <time>2018-09-14T18:16:31.000Z</time>
      </trkpt>
      <trkpt lat="41.698071" lon="-4.712921">
        <ele>704.0</ele>
        <time>2018-09-14T18:17:34.000Z</time>
      </trkpt>
      <trkpt lat="41.697502" lon="-4.714079">
        <ele>703.7</ele>
        <time>2018-09-14T18:22:44.000Z</time>
      </trkpt>
      <trkpt lat="41.698128" lon="-4.713093">
        <ele>703.8</ele>
        <time>2018-09-14T18:23:18.000Z</time>
      </trkpt>
      <trkpt lat="41.696309" lon="-4.714300">
        <ele>701.8</ele>
        <time>2018-09-14T18:24:18.000Z</time>
      </trkpt>
      <trkpt lat="41.695966" lon="-4.713495">
        <ele>700.2</ele>
        <time>2018-09-14T18:24:52.000Z</time>
      </trkpt>
      <trkpt lat="41.693372" lon="-4.715391">
        <ele>702.5</ele>
        <time>2018-09-14T18:27:39.000Z</time>
      </trkpt>
      <trkpt lat="41.691081" lon="-4.715991">
        <ele>700.5</ele>
        <time>2018-09-14T18:28:33.000Z</time>
      </trkpt>
      <trkpt lat="41.689071" lon="-4.718427">
        <ele>698.5</ele>
        <time>2018-09-14T18:29:26.000Z</time>
      </trkpt>
      <trkpt lat="41.686854" lon="-4.718958">
        <ele>698.0</ele>
        <time>2018-09-14T18:30:10.000Z</time>
      </trkpt>
      <trkpt lat="41.684528" lon="-4.718583">
        <ele>699.8</ele>
        <time>2018-09-14T18:31:23.000Z</time>
      </trkpt>
      <trkpt lat="41.680738" lon="-4.720438">
        <ele>697.8</ele>
        <time>2018-09-14T18:35:10.000Z</time>
      </trkpt>
      <trkpt lat="41.678970" lon="-4.724139">
        <ele>701.6</ele>
        <time>2018-09-14T18:36:30.000Z</time>
      </trkpt>
      <trkpt lat="41.669703" lon="-4.734090">
        <ele>701.3</ele>
        <time>2018-09-14T18:41:00.000Z</time>
      </trkpt>
      <trkpt lat="41.667749" lon="-4.736918">
        <ele>699.2</ele>
        <time>2018-09-14T18:42:15.000Z</time>
      </trkpt>
    </trkseg>
  </trk>
</gpx>
